createdAt,value
2023-09-01T00:01:22.973Z,69.41
2023-09-01T00:04:10.102Z,64.14
2023-09-01T00:06:37.121Z,68.01
2023-09-01T00:09:05.602Z,68.36
2023-09-01T00:11:32.511Z,67.54
2023-09-01T00:13:59.455Z,68.18
2023-09-01T00:16:27.494Z,68.13
2023-09-01T00:18:54.593Z,67.52
2023-09-01T00:21:21.450Z,69.52
2023-09-01T00:23:48.355Z,70.17
2023-09-01T00:26:15.465Z,70.03
2023-09-01T00:28:46.990Z,69.22
2023-09-01T00:31:16.968Z,69.71
2023-09-01T00:33:43.964Z,70.16
2023-09-01T00:36:11.050Z,72.47
2023-09-01T00:38:40.631Z,73.63
2023-09-01T00:41:07.772Z,73.39
2023-09-01T00:43:35.337Z,72.25
2023-09-01T00:46:02.644Z,72.91
2023-09-01T00:48:29.616Z,74.86
2023-09-01T00:50:56.777Z,72.61
2023-09-01T00:53:23.646Z,70.13
2023-09-01T00:55:52.662Z,70.51
2023-09-01T00:58:20.215Z,70.68
2023-09-01T01:00:47.125Z,70.18
2023-09-01T01:03:15.172Z,69.43
2023-09-01T01:06:10.677Z,70.00
2023-09-01T01:08:37.520Z,66.68
2023-09-01T01:11:45.743Z,60.98
2023-09-01T01:14:16.991Z,62.01
2023-09-01T01:16:44.670Z,64.26
2023-09-01T01:20:03.533Z,65.60
2023-09-01T01:23:11.052Z,64.93
2023-09-01T01:25:45.392Z,66.40
2023-09-01T01:28:12.634Z,67.31
2023-09-01T01:30:40.183Z,67.47
2023-09-01T01:33:15.725Z,67.59
2023-09-01T01:35:52.607Z,67.95
2023-09-01T01:38:27.109Z,69.24
2023-09-01T01:41:11.087Z,70.73
2023-09-01T01:43:40.402Z,69.27
2023-09-01T01:46:07.684Z,70.40
2023-09-01T01:48:41.238Z,70.94
2023-09-01T01:51:08.513Z,72.72
2023-09-01T01:53:37.015Z,72.34
2023-09-01T01:56:05.068Z,72.29
2023-09-01T01:58:32.363Z,72.32
2023-09-01T02:00:59.863Z,72.29
2023-09-01T02:03:26.865Z,72.41
2023-09-01T02:05:56.091Z,73.37
2023-09-01T02:08:24.032Z,73.00
2023-09-01T02:10:50.903Z,72.39
2023-09-01T02:13:17.829Z,72.65
2023-09-01T02:15:52.685Z,72.72
2023-09-01T02:18:20.653Z,72.36
2023-09-01T02:20:47.716Z,71.58
2023-09-01T02:23:17.606Z,73.03
2023-09-01T02:25:47.666Z,72.70
2023-09-01T02:28:14.776Z,73.03
2023-09-01T02:30:41.929Z,74.29
2023-09-01T02:33:08.921Z,73.62
2023-09-01T02:35:45.656Z,76.51
2023-09-01T02:38:13.461Z,76.52
2023-09-01T02:40:41.573Z,77.76
2023-09-01T02:43:08.499Z,78.46
2023-09-01T02:45:35.475Z,77.36
2023-09-01T02:48:02.463Z,77.65
2023-09-01T02:50:29.386Z,77.91
2023-09-01T02:52:56.242Z,78.76
2023-09-01T02:55:23.082Z,79.21
2023-09-01T02:57:50.100Z,78.09
2023-09-01T03:00:19.845Z,78.07
2023-09-01T03:02:48.209Z,76.94
2023-09-01T03:05:15.452Z,78.57
2023-09-01T03:07:42.702Z,77.81
2023-09-01T03:10:10.415Z,78.17
2023-09-01T03:12:39.782Z,77.98
2023-09-01T03:15:08.713Z,77.45
2023-09-01T03:17:35.965Z,77.09
2023-09-01T03:20:05.613Z,77.58
2023-09-01T03:22:32.916Z,77.54
2023-09-01T03:25:01.212Z,77.99
2023-09-01T03:27:28.463Z,76.80
2023-09-01T03:29:56.676Z,77.30
2023-09-01T03:32:28.154Z,77.64
2023-09-01T03:34:55.249Z,77.58
2023-09-01T03:37:23.489Z,77.85
2023-09-01T03:39:50.463Z,77.86
2023-09-01T03:42:18.144Z,75.50
2023-09-01T03:44:45.199Z,77.29
2023-09-01T03:47:12.053Z,77.60
2023-09-01T03:49:38.896Z,76.21
2023-09-01T03:52:06.074Z,76.63
2023-09-01T03:54:32.999Z,75.67
2023-09-01T03:57:00.626Z,76.25
2023-09-01T03:59:27.573Z,75.04
2023-09-01T04:01:54.507Z,75.48
2023-09-01T04:04:21.538Z,73.32
2023-09-01T04:06:48.484Z,73.24
2023-09-01T04:09:15.575Z,73.94
2023-09-01T04:11:42.712Z,74.64
2023-09-01T04:14:11.901Z,74.18
2023-09-01T04:16:42.149Z,74.00
2023-09-01T04:19:09.080Z,73.30
2023-09-01T04:21:37.133Z,75.03
2023-09-01T04:24:05.537Z,76.55
2023-09-01T04:26:32.803Z,74.49
2023-09-01T04:28:59.636Z,74.31
2023-09-01T04:31:30.632Z,73.34
2023-09-01T04:34:01.713Z,73.64
2023-09-01T04:36:41.142Z,73.68
2023-09-01T04:39:13.986Z,73.71
2023-09-01T04:41:41.810Z,68.94
2023-09-01T04:44:08.894Z,64.46
2023-09-01T04:46:37.076Z,67.72
2023-09-01T04:49:04.170Z,64.78
2023-09-01T04:51:31.123Z,65.76
2023-09-01T04:53:58.022Z,68.69
2023-09-01T04:56:25.020Z,68.65
2023-09-01T04:58:51.856Z,69.95
2023-09-01T05:01:19.514Z,72.36
2023-09-01T05:03:46.521Z,71.40
2023-09-01T05:06:13.540Z,69.77
2023-09-01T05:08:40.573Z,72.79
2023-09-01T05:11:08.199Z,71.01
2023-09-01T05:13:36.723Z,69.75
2023-09-01T05:16:04.340Z,68.61
2023-09-01T05:18:31.401Z,67.54
2023-09-01T05:20:58.326Z,67.30
2023-09-01T05:23:29.818Z,65.35
2023-09-01T05:25:57.408Z,66.64
2023-09-01T05:28:24.347Z,66.44
2023-09-01T05:30:51.477Z,64.94
2023-09-01T05:33:19.021Z,65.44
2023-09-01T05:35:45.947Z,62.38
2023-09-01T05:38:13.250Z,60.42
2023-09-01T05:40:40.457Z,61.49
2023-09-01T05:43:07.517Z,60.47
2023-09-01T05:45:34.416Z,61.19
2023-09-01T05:48:01.403Z,58.30
2023-09-01T05:50:29.554Z,58.30
2023-09-01T05:52:56.445Z,58.75
2023-09-01T05:55:23.295Z,59.27
2023-09-01T05:57:50.208Z,59.91
2023-09-01T06:00:17.558Z,58.77
2023-09-01T06:02:44.438Z,58.53
2023-09-01T06:05:11.337Z,57.45
2023-09-01T06:07:38.927Z,57.57
2023-09-01T06:10:06.464Z,57.82
2023-09-01T06:12:33.338Z,56.82
2023-09-01T06:15:00.238Z,55.98
2023-09-01T06:17:40.150Z,56.08
2023-09-01T06:20:08.282Z,56.08
2023-09-01T06:22:35.123Z,55.42
2023-09-01T06:25:04.451Z,54.18
2023-09-01T06:27:31.339Z,54.92
2023-09-01T06:29:58.499Z,54.02
2023-09-01T06:32:25.506Z,54.44
2023-09-01T06:34:52.950Z,54.17
2023-09-01T06:37:19.832Z,52.86
2023-09-01T06:39:46.811Z,52.29
2023-09-01T06:42:13.684Z,53.05
2023-09-01T06:44:40.760Z,51.20
2023-09-01T06:47:07.672Z,50.44
2023-09-01T06:49:34.531Z,50.79
2023-09-01T06:52:01.452Z,51.80
2023-09-01T06:54:28.448Z,50.03
2023-09-01T06:56:55.333Z,49.54
2023-09-01T06:59:25.526Z,48.44
2023-09-01T07:01:52.699Z,47.96
2023-09-01T07:04:19.605Z,49.05
2023-09-01T07:06:46.533Z,50.82
2023-09-01T07:09:13.458Z,47.48
2023-09-01T07:11:40.377Z,51.21
2023-09-01T07:14:07.278Z,50.04
2023-09-01T07:16:34.115Z,48.59
2023-09-01T07:19:00.942Z,46.81
2023-09-01T07:21:27.784Z,44.62
2023-09-01T07:23:54.665Z,43.84
2023-09-01T07:26:21.610Z,45.08
2023-09-01T07:28:48.502Z,45.84
2023-09-01T07:31:15.537Z,46.13
2023-09-01T07:33:45.297Z,44.86
2023-09-01T07:36:12.595Z,44.09
2023-09-01T07:38:39.796Z,43.73
2023-09-01T07:41:09.172Z,44.81
2023-09-01T07:43:36.385Z,45.56
2023-09-01T07:46:04.399Z,43.18
2023-09-01T07:48:32.100Z,43.56
2023-09-01T07:50:59.266Z,42.70
2023-09-01T07:53:26.130Z,43.70
2023-09-01T07:55:53.236Z,43.44
2023-09-01T07:58:20.814Z,42.85
2023-09-01T08:00:47.995Z,43.02
2023-09-01T08:03:14.932Z,40.71
2023-09-01T08:05:42.089Z,41.67
2023-09-01T08:08:09.178Z,40.19
2023-09-01T08:10:36.315Z,42.02
2023-09-01T08:13:03.551Z,40.88
2023-09-01T08:15:30.467Z,41.60
2023-09-01T08:17:57.422Z,41.48
2023-09-01T08:20:24.524Z,40.95
2023-09-01T08:22:51.440Z,40.96
2023-09-01T08:25:19.011Z,39.77
2023-09-01T08:27:46.080Z,39.87
2023-09-01T08:30:14.511Z,40.94
2023-09-01T08:32:42.647Z,40.63
2023-09-01T08:35:11.103Z,39.50
2023-09-01T08:37:38.315Z,39.27
2023-09-01T08:40:06.357Z,39.26
2023-09-01T08:42:34.512Z,38.69
2023-09-01T08:45:02.871Z,38.93
2023-09-01T08:47:36.838Z,38.44
2023-09-01T08:50:04.357Z,38.63
2023-09-01T08:52:34.520Z,38.73
2023-09-01T08:55:01.527Z,37.45
2023-09-01T08:57:28.443Z,37.40
2023-09-01T08:59:55.495Z,38.91
2023-09-01T09:02:22.338Z,38.37
2023-09-01T09:04:49.799Z,37.49
2023-09-01T09:07:19.111Z,36.29
2023-09-01T09:09:57.403Z,37.70
2023-09-01T09:12:34.600Z,39.07
2023-09-01T09:15:02.237Z,37.48
2023-09-01T09:17:49.980Z,37.02
2023-09-01T09:20:19.487Z,37.99
2023-09-01T09:23:01.856Z,37.39
2023-09-01T09:25:36.655Z,36.72
2023-09-01T09:28:16.762Z,37.34
2023-09-01T09:30:54.068Z,37.13
2023-09-01T09:33:29.209Z,36.04
2023-09-01T09:35:56.197Z,37.04
2023-09-01T09:38:23.524Z,36.36
2023-09-01T09:40:58.186Z,36.37
2023-09-01T09:43:25.251Z,35.20
2023-09-01T09:45:56.020Z,35.40
2023-09-01T09:48:23.186Z,35.57
2023-09-01T09:50:53.287Z,33.32
2023-09-01T09:53:25.100Z,35.03
2023-09-01T09:55:53.819Z,34.73
2023-09-01T09:58:30.732Z,34.22
2023-09-01T10:01:03.959Z,33.24
2023-09-01T10:03:31.464Z,34.04
2023-09-01T10:06:00.423Z,32.55
2023-09-01T10:08:29.290Z,34.42
2023-09-01T10:10:59.220Z,33.72
2023-09-01T10:13:27.213Z,33.81
2023-09-01T10:15:56.585Z,33.28
2023-09-01T10:18:25.250Z,32.96
2023-09-01T10:20:53.338Z,33.11
2023-09-01T10:23:20.780Z,32.46
2023-09-01T10:26:30.096Z,32.24
2023-09-01T10:28:58.221Z,31.83
2023-09-01T10:31:25.695Z,31.49
2023-09-01T10:34:16.492Z,32.28
2023-09-01T10:36:46.843Z,32.02
2023-09-01T10:39:28.386Z,32.75
2023-09-01T10:41:59.636Z,32.66
2023-09-01T10:44:41.826Z,31.87
2023-09-01T10:47:33.657Z,31.66
2023-09-01T10:50:02.700Z,31.63
2023-09-01T10:52:30.888Z,31.83
2023-09-01T10:55:00.586Z,31.09
2023-09-01T10:57:42.597Z,30.56
2023-09-01T11:00:26.239Z,29.91
2023-09-01T11:02:54.183Z,31.08
2023-09-01T11:05:40.236Z,31.41
2023-09-01T11:08:14.096Z,30.49
2023-09-01T11:10:41.364Z,31.21
2023-09-01T11:13:19.490Z,31.48
2023-09-01T11:15:48.601Z,32.00
2023-09-01T11:18:22.473Z,32.43
2023-09-01T11:20:51.404Z,32.84
2023-09-01T11:23:26.290Z,30.54
2023-09-01T11:26:00.647Z,30.37
2023-09-01T11:28:29.101Z,30.09
2023-09-01T11:31:05.195Z,30.30
2023-09-01T11:33:34.976Z,30.45
2023-09-01T11:36:12.393Z,29.66
2023-09-01T11:38:40.910Z,30.71
2023-09-01T11:41:13.235Z,30.47
2023-09-01T11:43:42.059Z,30.32
2023-09-01T11:46:09.588Z,30.11
2023-09-01T11:48:36.672Z,30.27
2023-09-01T11:51:03.695Z,29.87
2023-09-01T11:53:33.713Z,29.68
2023-09-01T11:56:04.582Z,29.14
2023-09-01T11:58:34.208Z,30.35
2023-09-01T12:01:12.118Z,29.33
2023-09-01T12:03:39.268Z,28.61
2023-09-01T12:06:40.232Z,28.97
2023-09-01T12:09:25.392Z,28.38
2023-09-01T12:11:56.821Z,29.55
2023-09-01T12:14:33.232Z,29.23
2023-09-01T12:17:01.568Z,29.74
2023-09-01T12:19:29.637Z,28.15
2023-09-01T12:21:58.873Z,28.49
2023-09-01T12:24:25.963Z,27.78
2023-09-01T12:26:52.997Z,28.36
2023-09-01T12:29:20.319Z,29.65
2023-09-01T12:31:47.303Z,29.89
2023-09-01T12:34:14.207Z,28.42
2023-09-01T12:36:41.096Z,29.24
2023-09-01T12:39:08.171Z,29.28
2023-09-01T12:41:35.017Z,29.70
2023-09-01T12:44:02.000Z,28.93
2023-09-01T12:46:29.720Z,28.49
2023-09-01T12:48:56.710Z,28.53
2023-09-01T12:51:23.642Z,28.09
2023-09-01T12:53:51.697Z,27.33
2023-09-01T12:56:18.742Z,27.94
2023-09-01T12:58:45.642Z,28.38
2023-09-01T13:01:12.608Z,27.24
2023-09-01T13:03:39.526Z,27.49
2023-09-01T13:06:11.392Z,28.05
2023-09-01T13:08:38.920Z,27.51
2023-09-01T13:11:14.545Z,27.65
2023-09-01T13:13:41.983Z,28.33
2023-09-01T13:16:11.128Z,28.25
2023-09-01T13:18:40.458Z,27.80
2023-09-01T13:21:07.488Z,26.86
2023-09-01T13:23:34.406Z,27.46
2023-09-01T13:26:01.621Z,26.86
2023-09-01T13:28:29.145Z,25.94
2023-09-01T13:30:58.435Z,26.23
2023-09-01T13:33:25.476Z,26.95
2023-09-01T13:35:55.120Z,25.66
2023-09-01T13:38:22.095Z,26.25
2023-09-01T13:40:56.121Z,25.99
2023-09-01T13:43:23.018Z,26.47
2023-09-01T13:45:49.985Z,25.72
2023-09-01T13:48:16.895Z,25.86
2023-09-01T13:50:45.650Z,26.73
2023-09-01T13:53:13.604Z,25.69
2023-09-01T13:55:40.633Z,25.41
2023-09-01T13:58:07.651Z,25.81
2023-09-01T14:00:34.656Z,25.66
2023-09-01T14:03:03.825Z,25.14
2023-09-01T14:05:30.694Z,25.74
2023-09-01T14:07:57.682Z,25.84
2023-09-01T14:10:24.604Z,25.91
2023-09-01T14:12:51.418Z,27.77
2023-09-01T14:15:18.271Z,26.08
2023-09-01T14:17:46.696Z,26.80
2023-09-01T14:20:13.636Z,27.20
2023-09-01T14:22:40.556Z,25.66
2023-09-01T14:25:07.938Z,26.21
2023-09-01T14:27:34.863Z,26.72
2023-09-01T14:30:02.227Z,24.44
2023-09-01T14:32:29.118Z,25.22
2023-09-01T14:34:56.015Z,25.01
2023-09-01T14:37:23.933Z,26.18
2023-09-01T14:39:50.828Z,26.71
2023-09-01T14:42:17.642Z,27.43
2023-09-01T14:44:44.492Z,25.30
2023-09-01T14:47:11.396Z,26.14
2023-09-01T14:49:38.336Z,27.40
2023-09-01T14:52:05.502Z,27.71
2023-09-01T14:54:32.368Z,27.54
2023-09-01T14:56:59.312Z,27.79
2023-09-01T14:59:27.274Z,26.98
2023-09-01T15:01:55.237Z,27.17
2023-09-01T15:04:22.231Z,27.14
2023-09-01T15:06:49.118Z,27.79
2023-09-01T15:09:16.437Z,26.81
2023-09-01T15:11:43.314Z,28.46
2023-09-01T15:14:10.237Z,25.86
2023-09-01T15:16:37.087Z,26.98
2023-09-01T15:19:04.088Z,27.24
2023-09-01T15:21:31.500Z,26.87
2023-09-01T15:23:58.535Z,27.25
2023-09-01T15:26:26.285Z,27.49
2023-09-01T15:28:53.193Z,27.30
2023-09-01T15:31:20.160Z,27.03
2023-09-01T15:33:47.036Z,28.18
2023-09-01T15:36:13.958Z,28.02
2023-09-01T15:38:40.966Z,27.61
2023-09-01T15:41:10.496Z,28.15
2023-09-01T15:43:39.026Z,28.14
2023-09-01T15:46:09.947Z,28.49
2023-09-01T15:48:37.746Z,28.35
2023-09-01T15:51:04.987Z,28.25
2023-09-01T15:53:32.013Z,28.74
2023-09-01T15:56:01.955Z,28.10
2023-09-01T15:58:29.253Z,28.82
2023-09-01T16:01:09.850Z,29.49
2023-09-01T16:03:52.786Z,28.62
2023-09-01T16:06:21.565Z,29.10
2023-09-01T16:08:48.548Z,29.46
2023-09-01T16:11:15.532Z,29.48
2023-09-01T16:13:42.504Z,29.61
2023-09-01T16:16:09.731Z,29.87
2023-09-01T16:18:36.805Z,30.16
2023-09-01T16:21:05.489Z,30.42
2023-09-01T16:23:34.292Z,31.66
2023-09-01T16:26:01.302Z,31.15
2023-09-01T16:28:28.272Z,32.30
2023-09-01T16:30:55.210Z,31.55
2023-09-01T16:33:22.233Z,31.45
2023-09-01T16:36:00.424Z,32.11
2023-09-01T16:38:30.322Z,31.84
2023-09-01T16:40:59.869Z,32.83
2023-09-01T16:43:27.326Z,32.26
2023-09-01T16:45:54.908Z,32.16
2023-09-01T16:48:23.304Z,32.50
2023-09-01T16:50:50.324Z,33.43
2023-09-01T16:53:17.377Z,32.88
2023-09-01T16:55:46.625Z,33.71
2023-09-01T16:58:17.644Z,33.19
2023-09-01T17:00:45.028Z,33.43
2023-09-01T17:03:12.136Z,33.44
2023-09-01T17:05:39.185Z,34.62
2023-09-01T17:08:06.322Z,34.23
2023-09-01T17:10:33.740Z,34.06
2023-09-01T17:13:01.300Z,33.83
2023-09-01T17:15:28.478Z,33.54
2023-09-01T17:17:56.769Z,35.22
2023-09-01T17:20:27.632Z,35.54
2023-09-01T17:22:55.300Z,35.14
2023-09-01T17:25:22.196Z,35.39
2023-09-01T17:27:49.008Z,35.84
2023-09-01T17:30:16.965Z,35.72
2023-09-01T17:32:44.147Z,36.57
2023-09-01T17:35:11.139Z,35.80
2023-09-01T17:37:38.119Z,35.67
2023-09-01T17:40:06.710Z,35.62
2023-09-01T17:42:33.780Z,35.33
2023-09-01T17:45:00.752Z,35.69
2023-09-01T17:47:27.924Z,36.04
2023-09-01T17:49:54.833Z,36.61
2023-09-01T17:52:21.814Z,36.54
2023-09-01T17:54:48.722Z,36.35
2023-09-01T17:57:15.723Z,36.45
2023-09-01T17:59:42.572Z,37.73
2023-09-01T18:02:11.464Z,36.63
2023-09-01T18:04:38.350Z,37.87
2023-09-01T18:07:07.189Z,37.88
2023-09-01T18:09:36.082Z,37.66
2023-09-01T18:12:03.744Z,39.08
2023-09-01T18:14:30.603Z,39.35
2023-09-01T18:16:58.202Z,39.76
2023-09-01T18:19:25.172Z,39.49
2023-09-01T18:21:52.575Z,40.21
2023-09-01T18:24:25.497Z,40.17
2023-09-01T18:26:52.461Z,40.12
2023-09-01T18:29:23.471Z,40.01
2023-09-01T18:31:52.009Z,40.39
2023-09-01T18:34:20.441Z,40.75
2023-09-01T18:36:47.792Z,41.54
2023-09-01T18:39:14.806Z,41.35
2023-09-01T18:41:43.315Z,41.06
2023-09-01T18:44:10.534Z,40.33
2023-09-01T18:46:38.586Z,40.77
2023-09-01T18:49:12.922Z,41.90
2023-09-01T18:51:40.593Z,42.30
2023-09-01T18:54:43.802Z,42.04
2023-09-01T18:57:14.671Z,40.78
2023-09-01T18:59:42.139Z,40.83
2023-09-01T19:02:36.900Z,40.42
2023-09-01T19:05:16.553Z,41.00
2023-09-01T19:07:43.994Z,41.50
2023-09-01T19:10:20.173Z,43.18
2023-09-01T19:12:50.090Z,42.75
2023-09-01T19:15:17.768Z,42.20
2023-09-01T19:17:45.098Z,42.92
2023-09-01T19:20:24.345Z,43.57
2023-09-01T19:22:52.983Z,44.61
2023-09-01T19:25:19.874Z,43.46
2023-09-01T19:28:05.496Z,42.84
2023-09-01T19:30:35.133Z,42.68
2023-09-01T19:33:02.314Z,42.68
2023-09-01T19:35:29.533Z,43.06
2023-09-01T19:37:56.798Z,42.65
2023-09-01T19:40:23.943Z,41.48
2023-09-01T19:42:51.168Z,42.70
2023-09-01T19:45:38.419Z,43.08
2023-09-01T19:48:06.073Z,42.88
2023-09-01T19:50:34.363Z,42.37
2023-09-01T19:53:13.101Z,42.50
2023-09-01T19:55:41.114Z,42.50
2023-09-01T19:58:07.956Z,43.08
2023-09-01T20:00:39.042Z,43.70
2023-09-01T20:03:08.325Z,44.83
2023-09-01T20:05:37.426Z,45.01
2023-09-01T20:08:05.398Z,44.70
2023-09-01T20:10:37.213Z,45.14
2023-09-01T20:13:09.032Z,45.16
2023-09-01T20:15:41.572Z,45.49
2023-09-01T20:18:17.010Z,45.51
2023-09-01T20:20:46.337Z,45.22
2023-09-01T20:23:13.361Z,46.34
2023-09-01T20:25:40.259Z,46.82
2023-09-01T20:28:07.543Z,46.69
2023-09-01T20:30:34.626Z,46.86
2023-09-01T20:33:01.522Z,46.52
2023-09-01T20:35:30.056Z,46.97
2023-09-01T20:37:56.955Z,46.69
2023-09-01T20:40:23.831Z,46.16
2023-09-01T20:42:53.157Z,46.98
2023-09-01T20:45:20.096Z,47.84
2023-09-01T20:47:46.939Z,48.61
2023-09-01T20:50:13.863Z,48.71
2023-09-01T20:52:40.991Z,48.18
2023-09-01T20:55:10.887Z,48.35
2023-09-01T20:57:45.796Z,47.36
2023-09-01T21:00:18.903Z,47.15
2023-09-01T21:02:48.945Z,48.21
2023-09-01T21:05:20.264Z,47.45
2023-09-01T21:07:49.815Z,47.83
2023-09-01T21:10:18.427Z,47.51
2023-09-01T21:12:45.569Z,46.40
2023-09-01T21:15:12.535Z,49.03
2023-09-01T21:17:39.462Z,49.28
2023-09-01T21:20:07.220Z,48.79
2023-09-01T21:22:34.168Z,49.16
2023-09-01T21:25:01.069Z,49.13
2023-09-01T21:27:28.055Z,48.63
2023-09-01T21:30:12.562Z,48.47
2023-09-01T21:32:39.783Z,48.06
2023-09-01T21:35:07.229Z,49.22
2023-09-01T21:37:36.907Z,49.02
2023-09-01T21:40:06.500Z,48.52
2023-09-01T21:42:33.588Z,48.64
2023-09-01T21:45:00.645Z,49.55
2023-09-01T21:47:27.646Z,49.35
2023-09-01T21:49:54.610Z,50.00
2023-09-01T21:52:21.565Z,50.59
2023-09-01T21:54:48.440Z,49.94
2023-09-01T21:57:18.424Z,50.73
2023-09-01T21:59:45.296Z,50.46
2023-09-01T22:02:12.214Z,50.43
2023-09-01T22:04:41.389Z,50.66
2023-09-01T22:07:08.895Z,50.85
2023-09-01T22:09:35.958Z,51.32
2023-09-01T22:12:03.869Z,51.21
2023-09-01T22:14:30.710Z,50.66
2023-09-01T22:16:57.625Z,51.19
2023-09-01T22:19:31.910Z,51.06
2023-09-01T22:21:59.917Z,50.98
2023-09-01T22:24:32.265Z,50.46
2023-09-01T22:27:00.121Z,50.56
2023-09-01T22:29:28.672Z,50.99
2023-09-01T22:31:58.313Z,50.62
2023-09-01T22:34:25.493Z,49.63
2023-09-01T22:36:52.380Z,51.02
2023-09-01T22:39:19.325Z,51.15
2023-09-01T22:41:46.259Z,49.78
2023-09-01T22:44:13.144Z,48.90
2023-09-01T22:46:40.150Z,49.85
2023-09-01T22:49:07.401Z,50.18
2023-09-01T22:51:34.363Z,49.76
2023-09-01T22:54:03.039Z,51.79
2023-09-01T22:56:30.539Z,51.42
2023-09-01T22:58:57.396Z,50.94
2023-09-01T23:01:24.250Z,50.98
2023-09-01T23:03:51.171Z,51.30
2023-09-01T23:06:18.037Z,51.39
2023-09-01T23:08:44.904Z,51.54
2023-09-01T23:11:16.439Z,51.95
2023-09-01T23:13:43.517Z,51.91
2023-09-01T23:16:10.360Z,52.54
2023-09-01T23:18:37.241Z,50.94
2023-09-01T23:21:04.240Z,52.47
2023-09-01T23:23:31.126Z,51.67
2023-09-01T23:25:58.003Z,52.34
2023-09-01T23:28:24.888Z,52.91
2023-09-01T23:30:51.755Z,52.33
2023-09-01T23:33:19.069Z,53.97
2023-09-01T23:35:46.066Z,53.28
2023-09-01T23:38:12.973Z,53.36
2023-09-01T23:40:40.348Z,52.93
2023-09-01T23:43:07.187Z,52.19
2023-09-01T23:45:34.014Z,52.65
2023-09-01T23:48:01.802Z,53.33
2023-09-01T23:50:28.794Z,53.85
2023-09-01T23:52:55.670Z,54.11
2023-09-01T23:55:22.566Z,54.74
2023-09-01T23:57:49.536Z,54.90
